createdAt,value
2018-04-27T00:01:57.398Z,98351
2018-04-27T00:04:26.910Z,98360
2018-04-27T00:06:56.206Z,98355
2018-04-27T00:09:25.076Z,98352
2018-04-27T00:11:55.122Z,98353
2018-04-27T00:14:23.925Z,98352
2018-04-27T00:16:52.844Z,98355
2018-04-27T00:19:21.597Z,98354
2018-04-27T00:21:50.373Z,98355
2018-04-27T00:24:19.148Z,98355
2018-04-27T00:26:47.922Z,98349
2018-04-27T00:29:18.104Z,98350
2018-04-27T00:31:47.734Z,98342
2018-04-27T00:34:16.596Z,98344
2018-04-27T00:36:45.437Z,98341
2018-04-27T00:39:14.792Z,98341
2018-04-27T00:41:44.495Z,98340
2018-04-27T00:44:13.654Z,98343
2018-04-27T00:46:42.397Z,98341
2018-04-27T00:49:11.181Z,98338
2018-04-27T00:51:40.385Z,98340
2018-04-27T00:54:09.949Z,98340
2018-04-27T00:56:38.894Z,98341
2018-04-27T00:59:09.203Z,98341
2018-04-27T01:01:43.001Z,98334
2018-04-27T01:04:13.082Z,98339
2018-04-27T01:06:41.869Z,98335
2018-04-27T01:09:11.490Z,98336
2018-04-27T01:11:40.534Z,98334
2018-04-27T01:14:09.302Z,98335
2018-04-27T01:16:38.903Z,98333
2018-04-27T01:19:07.719Z,98332
2018-04-27T01:21:36.883Z,98327
2018-04-27T01:24:05.790Z,98331
2018-04-27T01:26:35.367Z,98328
2018-04-27T01:29:04.305Z,98329
2018-04-27T01:31:33.831Z,98330
2018-04-27T01:34:02.642Z,98325
2018-04-27T01:36:31.535Z,98324
2018-04-27T01:39:00.430Z,98320
2018-04-27T01:41:29.203Z,98320
2018-04-27T01:43:58.004Z,98322
2018-04-27T01:46:26.809Z,98325
2018-04-27T01:48:55.597Z,98320
2018-04-27T01:51:24.376Z,98317
2018-04-27T01:53:53.941Z,98318
2018-04-27T01:56:22.793Z,98316
2018-04-27T01:58:52.353Z,98322
2018-04-27T02:01:21.187Z,98317
2018-04-27T02:03:50.741Z,98319
2018-04-27T02:06:19.520Z,98318
2018-04-27T02:08:48.334Z,98317
2018-04-27T02:11:17.159Z,98310
2018-04-27T02:13:45.953Z,98313
2018-04-27T02:16:14.725Z,98308
2018-04-27T02:18:43.544Z,98309
2018-04-27T02:21:12.313Z,98306
2018-04-27T02:23:41.902Z,98312
2018-04-27T02:26:10.691Z,98312
2018-04-27T02:28:39.467Z,98311
2018-04-27T02:31:08.250Z,98313
2018-04-27T02:33:37.645Z,98313
2018-04-27T02:36:06.426Z,98318
2018-04-27T02:38:35.221Z,98314
2018-04-27T02:41:04.011Z,98311
2018-04-27T02:43:32.811Z,98314
2018-04-27T02:46:01.609Z,98313
2018-04-27T02:48:30.408Z,98312
2018-04-27T02:50:59.262Z,98308
2018-04-27T02:53:28.804Z,98306
2018-04-27T02:55:57.606Z,98305
2018-04-27T02:58:26.416Z,98296
2018-04-27T03:00:55.222Z,98296
2018-04-27T03:03:23.997Z,98298
2018-04-27T03:05:52.795Z,98298
2018-04-27T03:08:22.359Z,98295
2018-04-27T03:10:51.221Z,98292
2018-04-27T03:13:20.106Z,98284
2018-04-27T03:15:48.879Z,98279
2018-04-27T03:18:18.461Z,98273
2018-04-27T03:20:47.274Z,98276
2018-04-27T03:23:16.107Z,98277
2018-04-27T03:25:44.916Z,98266
2018-04-27T03:28:14.528Z,98263
2018-04-27T03:30:44.106Z,98261
2018-04-27T03:33:12.908Z,98259
2018-04-27T03:35:41.704Z,98252
2018-04-27T03:38:10.504Z,98255
2018-04-27T03:40:39.344Z,98244
2018-04-27T03:43:08.260Z,98243
2018-04-27T03:45:37.867Z,98238
2018-04-27T03:48:06.659Z,98240
2018-04-27T03:50:35.469Z,98238
2018-04-27T03:53:04.277Z,98235
2018-04-27T03:55:33.097Z,98234
2018-04-27T03:58:01.878Z,98226
2018-04-27T04:00:48.581Z,98220
2018-04-27T04:03:35.301Z,98217
2018-04-27T04:06:04.138Z,98212
2018-04-27T04:08:32.942Z,98214
2018-04-27T04:11:01.737Z,98217
2018-04-27T04:13:30.608Z,98209
2018-04-27T04:16:00.209Z,98205
2018-04-27T04:18:29.781Z,98203
2018-04-27T04:20:58.605Z,98197
2018-04-27T04:23:27.435Z,98199
2018-04-27T04:25:56.222Z,98200
2018-04-27T04:28:25.838Z,98203
2018-04-27T04:30:55.403Z,98204
2018-04-27T04:33:24.193Z,98207
2018-04-27T04:35:53.083Z,98201
2018-04-27T04:38:21.980Z,98207
2018-04-27T04:40:50.847Z,98209
2018-04-27T04:43:19.665Z,98213
2018-04-27T04:45:48.527Z,98208
2018-04-27T04:48:17.320Z,98199
2018-04-27T04:50:46.909Z,98203
2018-04-27T04:53:15.752Z,98203
2018-04-27T04:55:44.564Z,98195
2018-04-27T04:58:13.378Z,98198
2018-04-27T05:00:42.199Z,98202
2018-04-27T05:03:11.112Z,98200
2018-04-27T05:05:40.664Z,98197
2018-04-27T05:08:09.482Z,98193
2018-04-27T05:10:38.391Z,98200
2018-04-27T05:13:07.118Z,98200
2018-04-27T05:15:35.953Z,98207
2018-04-27T05:18:18.374Z,98205
2018-04-27T05:20:47.190Z,98201
2018-04-27T05:23:16.100Z,98196
2018-04-27T05:25:45.733Z,98200
2018-04-27T05:28:15.296Z,98198
2018-04-27T05:30:44.320Z,98199
2018-04-27T05:33:13.877Z,98195
2018-04-27T05:35:42.768Z,98192
2018-04-27T05:38:12.363Z,98198
2018-04-27T05:40:42.021Z,98196
2018-04-27T05:43:10.759Z,98188
2018-04-27T05:45:39.547Z,98189
2018-04-27T05:48:08.366Z,98190
2018-04-27T05:50:37.933Z,98182
2018-04-27T05:53:06.747Z,98182
2018-04-27T05:55:35.578Z,98181
2018-04-27T05:58:04.401Z,98177
2018-04-27T06:00:33.175Z,98177
2018-04-27T06:03:01.969Z,98166
2018-04-27T06:05:30.795Z,98161
2018-04-27T06:08:01.372Z,98155
2018-04-27T06:10:30.137Z,98153
2018-04-27T06:12:59.723Z,98155
2018-04-27T06:15:28.540Z,98159
2018-04-27T06:17:58.117Z,98159
2018-04-27T06:20:26.935Z,98157
2018-04-27T06:22:56.495Z,98155
2018-04-27T06:25:25.309Z,98152
2018-04-27T06:27:54.115Z,98142
2018-04-27T06:30:22.913Z,98141
2018-04-27T06:32:51.701Z,98147
2018-04-27T06:35:20.527Z,98147
2018-04-27T06:37:49.327Z,98145
2018-04-27T06:40:18.134Z,98148
2018-04-27T06:42:46.941Z,98147
2018-04-27T06:45:16.566Z,98147
2018-04-27T06:47:46.123Z,98144
2018-04-27T06:50:14.890Z,98132
2018-04-27T06:52:44.470Z,98134
2018-04-27T06:55:13.274Z,98128
2018-04-27T06:57:42.112Z,98126
2018-04-27T07:00:11.074Z,98125
2018-04-27T07:02:39.887Z,98121
2018-04-27T07:05:08.796Z,98120
2018-04-27T07:07:37.596Z,98114
2018-04-27T07:10:06.392Z,98112
2018-04-27T07:12:35.943Z,98112
2018-04-27T07:15:04.771Z,98109
2018-04-27T07:17:33.886Z,98102
2018-04-27T07:20:02.728Z,98098
2018-04-27T07:22:31.549Z,98103
2018-04-27T07:25:00.325Z,98094
2018-04-27T07:27:29.129Z,98087
2018-04-27T07:29:57.970Z,98089
2018-04-27T07:32:26.772Z,98088
2018-04-27T07:34:55.565Z,98087
2018-04-27T07:37:24.363Z,98080
2018-04-27T07:39:53.166Z,98071
2018-04-27T07:42:22.865Z,98072
2018-04-27T07:44:52.471Z,98071
2018-04-27T07:47:22.038Z,98063
2018-04-27T07:49:50.845Z,98066
2018-04-27T07:52:20.430Z,98064
2018-04-27T07:54:49.241Z,98057
2018-04-27T07:57:18.792Z,98053
2018-04-27T07:59:47.592Z,98051
2018-04-27T08:02:17.182Z,98039
2018-04-27T08:04:45.930Z,98037
2018-04-27T08:07:14.796Z,98039
2018-04-27T08:09:43.542Z,98037
2018-04-27T08:12:13.147Z,98029
2018-04-27T08:14:42.747Z,98027
2018-04-27T08:17:12.377Z,98033
2018-04-27T08:19:41.938Z,98034
2018-04-27T08:22:10.864Z,98026
2018-04-27T08:24:40.457Z,98024
2018-04-27T08:27:09.255Z,98013
2018-04-27T08:29:38.837Z,98013
2018-04-27T08:32:07.704Z,98010
2018-04-27T08:34:36.493Z,98001
2018-04-27T08:37:05.301Z,97994
2018-04-27T08:39:34.119Z,97996
2018-04-27T08:42:03.659Z,97992
2018-04-27T08:44:32.507Z,97997
2018-04-27T08:47:02.102Z,97989
2018-04-27T08:49:30.925Z,97977
2018-04-27T08:52:00.626Z,97983
2018-04-27T08:54:30.184Z,97971
2018-04-27T08:56:58.976Z,97972
2018-04-27T08:59:27.906Z,97967
2018-04-27T09:01:56.849Z,97961
2018-04-27T09:04:26.407Z,97955
2018-04-27T09:06:55.257Z,97953
2018-04-27T09:09:24.136Z,97945
2018-04-27T09:11:52.944Z,97941
2018-04-27T09:14:21.740Z,97937
2018-04-27T09:16:51.326Z,97934
2018-04-27T09:19:20.244Z,97933
2018-04-27T09:21:49.164Z,97926
2018-04-27T09:24:17.977Z,97918
2018-04-27T09:26:46.925Z,97907
2018-04-27T09:29:15.732Z,97911
2018-04-27T09:31:44.516Z,97912
2018-04-27T09:34:13.303Z,97902
2018-04-27T09:36:42.150Z,97894
2018-04-27T09:39:11.728Z,97890
2018-04-27T09:41:40.811Z,97893
2018-04-27T09:44:09.652Z,97887
2018-04-27T09:46:38.478Z,97886
2018-04-27T09:49:07.416Z,97878
2018-04-27T09:51:36.352Z,97881
2018-04-27T09:54:05.153Z,97883
2018-04-27T09:56:33.957Z,97874
2018-04-27T09:59:02.769Z,97875
2018-04-27T10:01:33.105Z,97866
2018-04-27T10:04:01.918Z,97861
2018-04-27T10:06:30.772Z,97862
2018-04-27T10:09:00.362Z,97855
2018-04-27T10:11:29.290Z,97844
2018-04-27T10:13:58.890Z,97840
2018-04-27T10:16:27.812Z,97836
2018-04-27T10:18:57.368Z,97840
2018-04-27T10:21:26.726Z,97831
2018-04-27T10:23:56.310Z,97828
2018-04-27T10:26:25.091Z,97822
2018-04-27T10:28:53.919Z,97822
2018-04-27T10:31:22.713Z,97816
2018-04-27T10:33:52.797Z,97802
2018-04-27T10:36:21.606Z,97798
2018-04-27T10:38:50.414Z,97789
2018-04-27T10:41:19.232Z,97789
2018-04-27T10:43:48.039Z,97793
2018-04-27T10:46:16.928Z,97782
2018-04-27T10:48:45.753Z,97784
2018-04-27T10:51:14.643Z,97776
2018-04-27T10:53:43.455Z,97763
2018-04-27T10:56:12.303Z,97762
2018-04-27T10:58:41.810Z,97757
2018-04-27T11:01:10.632Z,97747
2018-04-27T11:03:39.455Z,97744
2018-04-27T11:06:08.252Z,97747
2018-04-27T11:08:37.866Z,97738
2018-04-27T11:11:07.467Z,97737
2018-04-27T11:13:36.261Z,97718
2018-04-27T11:16:05.067Z,97725
2018-04-27T11:18:34.809Z,97712
2018-04-27T11:21:03.610Z,97708
2018-04-27T11:23:32.427Z,97698
2018-04-27T11:26:01.316Z,97698
2018-04-27T11:28:30.146Z,97694
2018-04-27T11:30:59.741Z,97696
2018-04-27T11:33:28.532Z,97699
2018-04-27T11:35:57.352Z,97698
2018-04-27T11:38:26.169Z,97698
2018-04-27T11:40:54.998Z,97689
2018-04-27T11:43:23.865Z,97685
2018-04-27T11:45:53.417Z,97680
2018-04-27T11:48:22.229Z,97671
2018-04-27T11:50:51.141Z,97668
2018-04-27T11:53:20.043Z,97660
2018-04-27T11:55:48.806Z,97654
2018-04-27T11:58:17.666Z,97657
2018-04-27T12:00:48.166Z,97648
2018-04-27T12:03:16.968Z,97644
2018-04-27T12:05:46.508Z,97645
2018-04-27T12:08:15.363Z,97634
2018-04-27T12:10:45.045Z,97631
2018-04-27T12:13:13.794Z,97639
2018-04-27T12:15:43.364Z,97635
2018-04-27T12:18:12.176Z,97643
2018-04-27T12:20:41.095Z,97642
2018-04-27T12:23:10.013Z,97639
2018-04-27T12:25:38.822Z,97628
2018-04-27T12:28:07.775Z,97625
2018-04-27T12:30:36.573Z,97617
2018-04-27T12:33:05.450Z,97618
2018-04-27T12:35:34.996Z,97619
2018-04-27T12:38:03.852Z,97613
2018-04-27T12:40:33.418Z,97611
2018-04-27T12:43:03.016Z,97606
2018-04-27T12:45:31.808Z,97599
2018-04-27T12:48:01.404Z,97587
2018-04-27T12:50:30.238Z,97587
2018-04-27T12:52:59.023Z,97578
2018-04-27T12:55:27.842Z,97581
2018-04-27T12:57:56.684Z,97572
2018-04-27T13:00:26.254Z,97564
2018-04-27T13:02:55.174Z,97553
2018-04-27T13:05:24.782Z,97558
2018-04-27T13:07:54.386Z,97564
2018-04-27T13:10:23.178Z,97558
2018-04-27T13:12:51.956Z,97549
2018-04-27T13:15:20.760Z,97543
2018-04-27T13:17:50.391Z,97536
2018-04-27T13:20:19.956Z,97534
2018-04-27T13:22:48.776Z,97535
2018-04-27T13:25:18.348Z,97539
2018-04-27T13:27:47.144Z,97528
2018-04-27T13:30:15.947Z,97531
2018-04-27T13:32:44.763Z,97526
2018-04-27T13:35:13.698Z,97518
2018-04-27T13:37:42.501Z,97509
2018-04-27T13:40:11.364Z,97512
2018-04-27T13:42:40.165Z,97511
2018-04-27T13:45:09.771Z,97515
2018-04-27T13:47:38.620Z,97507
2018-04-27T13:50:08.212Z,97503
2018-04-27T13:52:36.994Z,97505
2018-04-27T13:55:05.811Z,97504
2018-04-27T13:57:35.451Z,97504
2018-04-27T14:00:05.037Z,97503
2018-04-27T14:02:34.605Z,97495
2018-04-27T14:05:03.426Z,97497
2018-04-27T14:07:33.024Z,97493
2018-04-27T14:10:01.949Z,97482
2018-04-27T14:12:30.830Z,97479
2018-04-27T14:15:00.406Z,97474
2018-04-27T14:17:29.326Z,97467
2018-04-27T14:19:58.890Z,97469
2018-04-27T14:22:27.701Z,97465
2018-04-27T14:24:56.576Z,97464
2018-04-27T14:27:25.384Z,97466
2018-04-27T14:29:54.224Z,97461
2018-04-27T14:32:23.798Z,97450
2018-04-27T14:34:54.378Z,97453
2018-04-27T14:37:23.212Z,97448
2018-04-27T14:39:52.026Z,97442
2018-04-27T14:42:20.841Z,97442
2018-04-27T14:44:50.435Z,97444
2018-04-27T14:47:20.023Z,97442
2018-04-27T14:49:48.863Z,97433
2018-04-27T14:52:17.886Z,97427
2018-04-27T14:54:47.465Z,97422
2018-04-27T14:57:16.279Z,97426
2018-04-27T14:59:45.133Z,97422
2018-04-27T15:02:13.933Z,97426
2018-04-27T15:04:42.765Z,97424
2018-04-27T15:07:11.574Z,97412
2018-04-27T15:09:42.077Z,97416
2018-04-27T15:12:11.021Z,97413
2018-04-27T15:14:39.790Z,97406
2018-04-27T15:17:09.395Z,97397
2018-04-27T15:19:38.942Z,97392
2018-04-27T15:22:07.765Z,97397
2018-04-27T15:24:36.617Z,97397
2018-04-27T15:27:05.438Z,97404
2018-04-27T15:29:34.338Z,97403
2018-04-27T15:32:03.970Z,97399
2018-04-27T15:34:33.542Z,97395
2018-04-27T15:37:02.345Z,97392
2018-04-27T15:39:31.972Z,97383
2018-04-27T15:42:00.891Z,97390
2018-04-27T15:44:30.540Z,97383
2018-04-27T15:46:59.360Z,97393
2018-04-27T15:49:28.257Z,97397
2018-04-27T15:51:57.812Z,97392
2018-04-27T15:54:26.662Z,97389
2018-04-27T15:56:55.466Z,97388
2018-04-27T15:59:24.282Z,97375
2018-04-27T16:01:53.152Z,97373
2018-04-27T16:04:21.958Z,97367
2018-04-27T16:06:50.760Z,97368
2018-04-27T16:09:20.413Z,97369
2018-04-27T16:11:49.364Z,97371
2018-04-27T16:14:19.767Z,97379
2018-04-27T16:16:48.607Z,97376
2018-04-27T16:19:17.475Z,97374
2018-04-27T16:21:47.514Z,97379
2018-04-27T16:24:17.109Z,97383
2018-04-27T16:26:46.039Z,97376
2018-04-27T16:29:14.838Z,97372
2018-04-27T16:31:47.342Z,97378
2018-04-27T16:34:16.198Z,97374
2018-04-27T16:36:45.758Z,97370
2018-04-27T16:39:15.521Z,97364
2018-04-27T16:41:44.446Z,97363
2018-04-27T16:44:13.241Z,97358
2018-04-27T16:46:42.142Z,97359
2018-04-27T16:49:10.965Z,97355
2018-04-27T16:51:46.220Z,97356
2018-04-27T16:54:15.051Z,97365
2018-04-27T16:56:43.917Z,97366
2018-04-27T16:59:12.754Z,97365
2018-04-27T17:01:41.560Z,97359
2018-04-27T17:04:11.229Z,97353
2018-04-27T17:06:40.047Z,97354
2018-04-27T17:09:08.911Z,97354
2018-04-27T17:11:37.824Z,97355
2018-04-27T17:14:07.449Z,97361
2018-04-27T17:16:37.027Z,97357
2018-04-27T17:19:05.861Z,97357
2018-04-27T17:21:35.443Z,97357
2018-04-27T17:24:04.315Z,97353
2018-04-27T17:26:33.908Z,97351
2018-04-27T17:29:02.676Z,97346
2018-04-27T17:31:31.521Z,97357
2018-04-27T17:34:00.335Z,97362
2018-04-27T17:36:29.157Z,97357
2018-04-27T17:38:58.731Z,97357
2018-04-27T17:41:27.529Z,97357
2018-04-27T17:43:56.355Z,97367
2018-04-27T17:46:25.173Z,97377
2018-04-27T17:48:54.785Z,97367
2018-04-27T17:51:23.567Z,97366
2018-04-27T17:53:52.861Z,97359
2018-04-27T17:56:21.751Z,97373
2018-04-27T17:58:50.561Z,97376
2018-04-27T18:01:19.385Z,97374
2018-04-27T18:03:48.966Z,97376
2018-04-27T18:06:17.767Z,97377
2018-04-27T18:08:46.603Z,97375
2018-04-27T18:11:16.255Z,97375
2018-04-27T18:13:45.865Z,97378
2018-04-27T18:16:14.671Z,97368
2018-04-27T18:18:43.503Z,97372
2018-04-27T18:21:13.030Z,97368
2018-04-27T18:23:41.831Z,97375
2018-04-27T18:26:10.639Z,97381
2018-04-27T18:28:39.450Z,97379
2018-04-27T18:31:08.311Z,97384
2018-04-27T18:33:37.103Z,97385
2018-04-27T18:36:05.933Z,97385
2018-04-27T18:38:35.519Z,97380
2018-04-27T18:41:04.358Z,97376
2018-04-27T18:43:33.182Z,97374
2018-04-27T18:46:03.980Z,97378
2018-04-27T18:48:36.853Z,97377
2018-04-27T18:51:06.447Z,97376
2018-04-27T18:53:37.024Z,97382
2018-04-27T18:56:06.724Z,97387
2018-04-27T18:58:36.293Z,97389
2018-04-27T19:01:05.123Z,97390
2018-04-27T19:03:34.004Z,97400
2018-04-27T19:06:04.422Z,97397
2018-04-27T19:08:33.226Z,97400
2018-04-27T19:11:02.072Z,97401
2018-04-27T19:13:31.009Z,97398
2018-04-27T19:16:00.590Z,97405
2018-04-27T19:18:30.130Z,97406
2018-04-27T19:20:59.026Z,97401
2018-04-27T19:23:29.436Z,97404
2018-04-27T19:25:59.107Z,97403
2018-04-27T19:28:30.858Z,97406
2018-04-27T19:31:01.055Z,97407
2018-04-27T19:33:30.667Z,97407
2018-04-27T19:35:59.502Z,97408
2018-04-27T19:38:28.286Z,97409
2018-04-27T19:40:57.976Z,97409
2018-04-27T19:43:26.821Z,97414
2018-04-27T19:45:56.388Z,97417
2018-04-27T19:48:25.190Z,97417
2018-04-27T19:50:54.972Z,97424
2018-04-27T19:53:24.515Z,97423
2018-04-27T19:55:53.432Z,97425
2018-04-27T19:58:22.278Z,97424
2018-04-27T20:00:51.136Z,97420
2018-04-27T20:03:19.924Z,97426
2018-04-27T20:05:48.754Z,97420
2018-04-27T20:08:21.953Z,97422
2018-04-27T20:10:50.809Z,97426
2018-04-27T20:13:20.314Z,97424
2018-04-27T20:15:51.059Z,97430
2018-04-27T20:18:28.797Z,97426
2018-04-27T20:20:59.258Z,97434
2018-04-27T20:23:35.766Z,97430
2018-04-27T20:26:05.446Z,97429
2018-04-27T20:28:38.715Z,97431
2018-04-27T20:31:07.534Z,97436
2018-04-27T20:33:36.443Z,97437
2018-04-27T20:36:06.592Z,97438
2018-04-27T20:38:35.456Z,97438
2018-04-27T20:41:10.055Z,97447
2018-04-27T20:43:38.940Z,97444
2018-04-27T20:46:08.534Z,97443
2018-04-27T20:48:37.348Z,97441
2018-04-27T20:51:08.700Z,97444
2018-04-27T20:56:45.209Z,97444
2018-04-27T20:59:16.892Z,97450
2018-04-27T21:01:47.254Z,97446
2018-04-27T21:04:16.175Z,97450
2018-04-27T21:06:44.996Z,97449
2018-04-27T21:09:13.861Z,97448
2018-04-27T21:11:47.252Z,97447
2018-04-27T21:14:16.083Z,97449
2018-04-27T21:16:44.912Z,97447
2018-04-27T21:19:14.525Z,97452
2018-04-27T21:21:43.333Z,97453
2018-04-27T21:24:12.219Z,97446
2018-04-27T21:26:43.911Z,97444
2018-04-27T21:29:17.157Z,97444
2018-04-27T21:31:46.027Z,97449
2018-04-27T21:34:15.751Z,97457
2018-04-27T21:36:48.065Z,97460
2018-04-27T21:39:17.605Z,97458
2018-04-27T21:44:43.585Z,97465
2018-04-27T21:50:10.908Z,97471
2018-04-27T21:52:44.192Z,97473
2018-04-27T21:55:13.014Z,97470
2018-04-27T21:57:55.819Z,97482
2018-04-27T22:00:28.195Z,97483
2018-04-27T22:05:58.931Z,97491
2018-04-27T22:08:34.045Z,97490
2018-04-27T22:11:06.694Z,97492
2018-04-27T22:13:35.596Z,97494
2018-04-27T22:16:05.217Z,97500
2018-04-27T22:18:35.770Z,97504
2018-04-27T22:21:04.573Z,97504
2018-04-27T22:23:37.926Z,97505
2018-04-27T22:26:08.302Z,97504
2018-04-27T22:28:38.746Z,97512
2018-04-27T22:31:07.651Z,97514
2018-04-27T22:33:38.865Z,97518
2018-04-27T22:39:30.971Z,97527
2018-04-27T22:42:07.002Z,97538
2018-04-27T22:44:48.232Z,97545
2018-04-27T22:47:29.160Z,97550
2018-04-27T22:49:57.969Z,97546
2018-04-27T22:52:32.740Z,97542
2018-04-27T22:55:01.557Z,97557
2018-04-27T23:00:41.126Z,97570
2018-04-27T23:03:13.628Z,97574
2018-04-27T23:05:44.967Z,97576
2018-04-27T23:08:14.522Z,97580
2018-04-27T23:13:43.110Z,97576
2018-04-27T23:16:11.920Z,97582
2018-04-27T23:18:44.313Z,97586
2018-04-27T23:24:26.750Z,97581
2018-04-27T23:27:06.819Z,97587
2018-04-27T23:29:36.436Z,97586
2018-04-27T23:32:06.020Z,97590
2018-04-27T23:34:34.845Z,97594
2018-04-27T23:37:03.656Z,97594
2018-04-27T23:39:32.460Z,97591
2018-04-27T23:42:01.340Z,97597
2018-04-27T23:44:30.927Z,97601
2018-04-27T23:46:59.742Z,97597
2018-04-27T23:49:29.325Z,97595
2018-04-27T23:51:58.217Z,97590
2018-04-27T23:54:27.071Z,97594
2018-04-27T23:57:04.956Z,97594
2018-04-27T23:59:34.698Z,97601
